Time;durP1;ratioP1;P1;durP2;ratioP2;P2;SDS_P1;SDS_P2;PMS_P1;PMS_P2;Temp;Humidity;BMP_temperature;BMP_pressure;BME280_temperature;BME280_humidity;BME280_pressure;Samples;Min_cycle;Max_cycle;Signal;HPM_P1;HPM_P2
2022/03/24 00:01:49;;;;;;;73.60;37.17;;;4.60;97.70;;;;;;5022340;28;20389;-82
2022/03/24 00:04:15;;;;;;;68.18;35.10;;;4.90;55.80;;;;;;5015713;28;20375;-82
2022/03/24 00:06:40;;;;;;;68.72;35.38;;;5.10;33.40;;;;;;5015521;28;20029;-82
2022/03/24 00:09:06;;;;;;;70.32;35.90;;;5.00;37.00;;;;;;5014247;28;20018;-82
2022/03/24 00:11:31;;;;;;;72.97;35.72;;;5.00;20.70;;;;;;5015459;28;20416;-82
2022/03/24 00:13:57;;;;;;;77.15;36.42;;;5.00;18.90;;;;;;5015448;28;20113;-82
2022/03/24 00:16:23;;;;;;;77.93;39.75;;;4.90;25.20;;;;;;5015451;28;20033;-82
2022/03/24 00:18:49;;;;;;;71.05;37.30;;;4.80;36.80;;;;;;5015659;28;20406;-82
2022/03/24 00:21:16;;;;;;;75.82;38.78;;;4.70;19.50;;;;;;5015416;28;20104;-82
2022/03/24 00:23:42;;;;;;;79.95;37.70;;;4.50;26.80;;;;;;5015491;28;20076;-82
2022/03/24 00:26:08;;;;;;;71.72;36.78;;;4.50;48.40;;;;;;5015273;28;20100;-82
2022/03/24 00:28:33;;;;;;;77.25;39.10;;;4.40;47.50;;;;;;5015228;28;20533;-82
2022/03/24 00:31:00;;;;;;;75.70;35.97;;;4.50;59.70;;;;;;5015434;28;20029;-82
2022/03/24 00:33:25;;;;;;;73.65;37.45;;;4.70;60.60;;;;;;5015331;28;20113;-82
2022/03/24 00:35:51;;;;;;;72.78;34.97;;;4.80;45.70;;;;;;5014951;28;20178;-82
2022/03/24 00:38:17;;;;;;;72.95;37.33;;;4.90;30.70;;;;;;5014906;28;20022;-82
2022/03/24 00:40:43;;;;;;;76.47;37.50;;;4.90;30.80;;;;;;5013685;28;20028;-82
2022/03/24 00:43:09;;;;;;;71.78;36.15;;;4.80;24.40;;;;;;5014525;28;20042;-82
2022/03/24 00:45:35;;;;;;;74.60;36.00;;;4.70;25.60;;;;;;5014825;28;20739;-82
2022/03/24 00:48:01;;;;;;;72.93;36.03;;;4.80;35.80;;;;;;5014207;28;20025;-82
2022/03/24 00:50:26;;;;;;;75.40;37.30;;;4.80;33.90;;;;;;5015016;28;20415;-82
2022/03/24 00:52:52;;;;;;;76.40;35.55;;;4.70;31.90;;;;;;5013501;28;20036;-82
2022/03/24 00:55:20;;;;;;;76.63;36.85;;;4.60;41.70;;;;;;5013549;28;20029;-82
2022/03/24 00:57:52;;;;;;;70.90;36.00;;;4.60;48.10;;;;;;5014633;28;20465;-82
2022/03/24 01:00:20;;;;;;;70.97;35.08;;;4.50;45.50;;;;;;5015019;28;20068;-82
2022/03/24 01:02:48;;;;;;;78.10;37.42;;;4.50;57.50;;;;;;5013272;28;20044;-82
2022/03/24 01:05:15;;;;;;;80.60;38.22;;;4.60;54.70;;;;;;4997188;28;20030;-82
2022/03/24 01:07:43;;;;;;;82.53;38.08;;;4.70;44.80;;;;;;5013218;28;20393;-82
2022/03/24 01:10:10;;;;;;;76.60;36.95;;;4.80;25.50;;;;;;5014295;28;20075;-82
2022/03/24 01:12:36;;;;;;;83.43;39.33;;;4.80;25.80;;;;;;5014293;28;20044;-82
2022/03/24 01:15:04;;;;;;;86.35;41.22;;;4.90;25.20;;;;;;5014197;28;20108;-82
2022/03/24 01:17:31;;;;;;;82.60;40.90;;;4.80;18.30;;;;;;5014836;28;20025;-82
2022/03/24 01:19:57;;;;;;;81.57;39.65;;;4.70;18.90;;;;;;5014632;28;20022;-82
2022/03/24 01:22:23;;;;;;;81.13;39.60;;;4.50;39.30;;;;;;5014248;28;20026;-82
2022/03/24 01:24:49;;;;;;;80.53;39.95;;;4.50;40.70;;;;;;5014078;28;20041;-82
2022/03/24 01:27:15;;;;;;;83.88;39.60;;;4.40;46.90;;;;;;5014222;28;20026;-82
2022/03/24 01:29:41;;;;;;;86.95;40.42;;;4.40;65.30;;;;;;5014438;28;20543;-82
2022/03/24 01:32:08;;;;;;;86.60;42.83;;;4.60;77.50;;;;;;5013976;28;20109;-82
2022/03/24 01:34:34;;;;;;;95.65;43.33;;;4.70;75.70;;;;;;5012830;28;20061;-82
2022/03/24 01:37:00;;;;;;;93.78;44.45;;;4.70;86.50;;;;;;5014279;28;20036;-82
2022/03/24 01:39:26;;;;;;;90.32;42.38;;;4.80;70.90;;;;;;5013889;28;20097;-82
2022/03/24 01:41:52;;;;;;;85.85;41.78;;;4.80;73.60;;;;;;5013820;28;20367;-82
2022/03/24 01:44:19;;;;;;;87.03;40.35;;;4.80;83.20;;;;;;5012594;28;20087;-82
2022/03/24 01:46:59;;;;;;;90.97;42.15;;;4.70;74.00;;;;;;5013916;28;20061;-82
2022/03/24 01:49:27;;;;;;;90.47;41.75;;;4.70;93.20;;;;;;5013873;28;20548;-82
2022/03/24 01:51:53;;;;;;;89.43;41.45;;;4.70;86.40;;;;;;5026492;28;20049;-82
2022/03/24 01:54:21;;;;;;;97.47;43.78;;;4.70;84.10;;;;;;5033515;28;20028;-82
2022/03/24 01:56:48;;;;;;;88.20;42.72;;;4.60;95.20;;;;;;5032604;28;20033;-82
2022/03/24 01:59:16;;;;;;;87.38;42.20;;;4.50;97.30;;;;;;5033489;28;20096;-82
2022/03/24 02:01:43;;;;;;;89.07;43.47;;;4.50;99.90;;;;;;5032146;28;20025;-82
2022/03/24 02:04:09;;;;;;;94.07;43.55;;;4.50;99.90;;;;;;5033288;28;20060;-82
2022/03/24 02:06:35;;;;;;;96.43;43.25;;;4.50;99.90;;;;;;5033454;28;20021;-82
2022/03/24 02:09:02;;;;;;;93.45;43.28;;;4.40;99.90;;;;;;5032131;28;20050;-82
2022/03/24 02:11:28;;;;;;;95.35;44.65;;;4.40;99.90;;;;;;5033238;28;20017;-82
2022/03/24 02:13:55;;;;;;;88.72;41.90;;;4.40;99.90;;;;;;5031971;28;20103;-82
2022/03/24 02:16:27;;;;;;;97.60;44.72;;;4.40;99.90;;;;;;5033170;28;20021;-83
2022/03/24 02:18:59;;;;;;;101.68;46.00;;;4.40;99.90;;;;;;5033622;28;20021;-82
2022/03/24 02:21:28;;;;;;;100.95;45.83;;;4.40;99.90;;;;;;5033281;28;20033;-82
2022/03/24 02:23:53;;;;;;;98.38;45.22;;;4.40;99.90;;;;;;5031896;28;20435;-82
2022/03/24 02:26:19;;;;;;;97.28;44.28;;;4.40;99.90;;;;;;5033320;28;20132;-82
2022/03/24 02:28:45;;;;;;;102.10;45.05;;;4.50;99.90;;;;;;5033115;28;20053;-82
2022/03/24 02:31:12;;;;;;;105.93;46.30;;;4.60;99.90;;;;;;5031855;28;20381;-82
2022/03/24 02:33:39;;;;;;;107.07;46.53;;;4.70;99.90;;;;;;5023037;28;20751;-82
2022/03/24 02:36:06;;;;;;;97.45;45.88;;;4.70;99.90;;;;;;5012121;28;20060;-82
2022/03/24 02:38:32;;;;;;;98.72;44.08;;;4.90;99.90;;;;;;5013496;28;20646;-82
2022/03/24 02:40:58;;;;;;;103.88;46.42;;;5.00;99.90;;;;;;5013592;28;20080;-82
2022/03/24 02:43:24;;;;;;;103.50;46.72;;;5.10;99.90;;;;;;5012869;28;20754;-82
2022/03/24 02:45:53;;;;;;;99.32;44.75;;;5.10;99.90;;;;;;5013517;28;20029;-81
2022/03/24 02:48:19;;;;;;;102.80;44.70;;;5.10;99.90;;;;;;5013838;28;20018;-82
2022/03/24 02:50:45;;;;;;;100.03;46.17;;;5.10;99.90;;;;;;5012047;28;20032;-82
2022/03/24 02:53:10;;;;;;;99.85;46.80;;;5.10;99.90;;;;;;5013209;28;20032;-82
2022/03/24 02:55:36;;;;;;;104.63;47.25;;;5.10;99.90;;;;;;5013296;28;20081;-82
2022/03/24 02:58:02;;;;;;;105.97;46.60;;;5.00;99.90;;;;;;5013169;28;20420;-82
2022/03/24 03:00:27;;;;;;;102.20;47.00;;;5.00;99.90;;;;;;5013684;28;20084;-82
2022/03/24 03:02:53;;;;;;;105.95;47.50;;;5.10;99.90;;;;;;5013022;28;20029;-82
2022/03/24 03:05:20;;;;;;;100.70;46.90;;;5.10;99.90;;;;;;5011919;28;20474;-82
2022/03/24 03:07:46;;;;;;;110.22;48.22;;;5.10;99.90;;;;;;5011710;28;20050;-82
2022/03/24 03:10:12;;;;;;;115.60;51.67;;;5.10;99.90;;;;;;5011847;28;20080;-82
2022/03/24 03:12:38;;;;;;;109.93;49.17;;;5.20;99.90;;;;;;5016730;28;20042;-82
2022/03/24 03:15:05;;;;;;;106.00;47.83;;;5.10;99.90;;;;;;5016526;28;20517;-82
2022/03/24 03:17:30;;;;;;;104.97;48.83;;;5.10;99.90;;;;;;5015325;28;20026;-83
2022/03/24 03:19:56;;;;;;;109.05;49.20;;;4.90;99.90;;;;;;5016590;28;20431;-82
2022/03/24 03:22:22;;;;;;;111.38;49.78;;;4.80;99.90;;;;;;5016483;28;20014;-82
2022/03/24 03:24:47;;;;;;;113.15;49.40;;;4.70;99.90;;;;;;5015135;28;20393;-82
2022/03/24 03:27:14;;;;;;;115.15;52.10;;;4.60;99.90;;;;;;5016705;28;20033;-82
2022/03/24 03:29:40;;;;;;;118.03;49.28;;;4.50;99.90;;;;;;5016385;28;20026;-82
2022/03/24 03:32:06;;;;;;;122.53;50.95;;;4.60;99.90;;;;;;5016248;28;20022;-82
2022/03/24 03:34:32;;;;;;;124.57;51.55;;;4.50;99.90;;;;;;5015007;28;20029;-82
2022/03/24 03:36:59;;;;;;;121.45;52.33;;;4.50;99.90;;;;;;5014991;28;20382;-82
2022/03/24 03:39:25;;;;;;;114.75;51.03;;;4.40;99.90;;;;;;5016378;28;20202;-82
2022/03/24 03:41:52;;;;;;;124.07;53.13;;;4.30;99.90;;;;;;5016136;28;20018;-82
2022/03/24 03:44:19;;;;;;;119.50;50.42;;;4.30;99.90;;;;;;5016109;28;20489;-82
2022/03/24 03:50:07;;;;;;;116.38;50.17;;;4.10;99.90;;;;;;4996687;28;20146;-82
2022/03/24 03:55:54;;;;;;;110.75;47.90;;;3.90;99.90;;;;;;5004737;28;20104;-82
2022/03/24 03:58:20;;;;;;;114.57;49.85;;;3.70;99.90;;;;;;5016042;28;20030;-82
2022/03/24 04:01:04;;;;;;;123.57;53.15;;;3.80;99.90;;;;;;5014417;28;20022;-82
2022/03/24 04:06:51;;;;;;;119.53;48.50;;;3.80;99.90;;;;;;5016095;28;20032;-82
2022/03/24 04:09:16;;;;;;;114.57;48.47;;;3.60;99.90;;;;;;5015585;28;20026;-82
2022/03/24 04:11:42;;;;;;;118.72;51.50;;;3.50;99.90;;;;;;5014280;28;20025;-82
2022/03/24 04:14:08;;;;;;;124.60;49.38;;;3.50;99.90;;;;;;5015504;28;20026;-82
2022/03/24 04:16:33;;;;;;;114.85;49.10;;;3.50;99.90;;;;;;5015796;28;20037;-82
2022/03/24 04:18:59;;;;;;;118.05;49.35;;;3.40;99.90;;;;;;5015389;28;20022;-82
2022/03/24 04:21:24;;;;;;;122.75;50.03;;;3.40;99.90;;;;;;5015649;28;20381;-82
2022/03/24 04:23:50;;;;;;;113.30;48.20;;;3.40;99.90;;;;;;5015227;28;20733;-83
2022/03/24 04:26:16;;;;;;;108.68;47.13;;;3.40;99.90;;;;;;5015230;28;20026;-82
2022/03/24 04:28:45;;;;;;;110.88;46.88;;;3.40;99.90;;;;;;5015433;28;20050;-82
2022/03/24 04:31:12;;;;;;;115.78;48.50;;;3.30;99.90;;;;;;5015141;28;20084;-82
2022/03/24 04:33:37;;;;;;;128.75;52.63;;;3.40;99.90;;;;;;5013807;28;20030;-82
2022/03/24 04:36:07;;;;;;;125.05;51.10;;;3.40;99.90;;;;;;5015010;28;20022;-82
2022/03/24 04:38:34;;;;;;;;;;;3.40;99.90;;;;;;5014317;28;20033;-82
2022/03/24 04:40:59;;;;;;;134.02;52.53;;;3.50;99.90;;;;;;5015012;28;19912;-82
2022/03/24 04:43:25;;;;;;;129.57;49.45;;;3.60;99.90;;;;;;5014646;28;20439;-82
2022/03/24 04:45:51;;;;;;;134.15;51.67;;;3.80;99.90;;;;;;5014883;28;20075;-82
2022/03/24 04:48:16;;;;;;;126.10;51.97;;;3.80;99.90;;;;;;5014870;28;20053;-82
2022/03/24 04:50:42;;;;;;;140.23;54.25;;;3.90;99.90;;;;;;5014818;28;20026;-82
2022/03/24 04:53:07;;;;;;;132.50;53.80;;;3.90;99.90;;;;;;5014828;28;20037;-82
2022/03/24 04:55:33;;;;;;;126.90;52.75;;;3.80;99.90;;;;;;5014687;28;20113;-81
2022/03/24 04:57:59;;;;;;;132.85;51.25;;;3.80;99.90;;;;;;5014632;28;20037;-81
2022/03/24 05:00:24;;;;;;;141.27;54.28;;;3.70;99.90;;;;;;5014520;28;20018;-81
2022/03/24 05:02:50;;;;;;;129.52;51.33;;;3.70;99.90;;;;;;5013267;28;20485;-81
2022/03/24 05:05:15;;;;;;;132.20;50.85;;;3.70;99.90;;;;;;5014633;28;20022;-81
2022/03/24 05:07:42;;;;;;;131.70;49.55;;;3.60;99.90;;;;;;5014631;28;20022;-81
2022/03/24 05:10:08;;;;;;;130.50;52.38;;;3.60;99.90;;;;;;5013140;28;20076;-81
2022/03/24 05:12:36;;;;;;;141.50;52.78;;;3.60;99.90;;;;;;5013458;28;20045;-81
2022/03/24 05:15:01;;;;;;;134.02;51.00;;;3.70;99.90;;;;;;5013025;28;20026;-81
2022/03/24 05:17:27;;;;;;;122.85;50.42;;;3.70;99.90;;;;;;5013167;28;20028;-81
2022/03/24 05:19:52;;;;;;;139.77;52.05;;;3.70;99.90;;;;;;5013161;28;20026;-81
2022/03/24 05:22:18;;;;;;;133.30;50.35;;;3.60;99.90;;;;;;5014581;28;20050;-81
2022/03/24 05:24:44;;;;;;;125.25;51.42;;;3.50;99.90;;;;;;5012988;28;20034;-81
2022/03/24 05:27:10;;;;;;;124.22;49.92;;;3.50;99.90;;;;;;5014206;28;20034;-82
2022/03/24 05:29:36;;;;;;;120.00;50.25;;;3.30;99.90;;;;;;5012896;28;20026;-81
2022/03/24 05:32:04;;;;;;;125.22;49.20;;;3.20;99.90;;;;;;5014152;28;20417;-81
2022/03/24 05:34:30;;;;;;;124.15;49.53;;;3.30;99.90;;;;;;4996274;28;20706;-82
2022/03/24 05:36:56;;;;;;;118.40;47.72;;;3.40;99.90;;;;;;5012673;28;20063;-82
2022/03/24 05:39:22;;;;;;;117.47;48.40;;;3.20;99.90;;;;;;5010535;28;20019;-82
2022/03/24 05:41:47;;;;;;;117.93;47.95;;;3.20;99.90;;;;;;5010895;28;20057;-82
2022/03/24 05:44:13;;;;;;;128.10;48.25;;;3.10;99.90;;;;;;5013074;28;20046;-82
2022/03/24 05:46:41;;;;;;;117.40;47.55;;;3.10;99.90;;;;;;5009385;28;20346;-82
2022/03/24 05:49:08;;;;;;;116.53;47.78;;;3.20;99.90;;;;;;5018471;28;20693;-82
2022/03/24 05:51:34;;;;;;;125.53;48.10;;;3.30;99.90;;;;;;5025332;28;20176;-83
2022/03/24 05:54:00;;;;;;;113.72;45.22;;;3.40;99.90;;;;;;5029030;28;20026;-83
2022/03/24 05:56:26;;;;;;;112.72;45.95;;;3.60;99.90;;;;;;5024648;28;20390;-83
2022/03/24 05:58:52;;;;;;;118.82;47.25;;;3.80;99.90;;;;;;5015888;28;20029;-83
2022/03/24 06:01:20;;;;;;;129.45;48.60;;;4.00;99.90;;;;;;5014338;28;20481;-82
2022/03/24 06:03:51;;;;;;;133.38;49.25;;;4.00;99.90;;;;;;5021787;28;20588;-83
2022/03/24 06:06:20;;;;;;;129.73;46.97;;;4.10;99.90;;;;;;5010771;28;20041;-83
2022/03/24 06:08:47;;;;;;;131.73;50.10;;;4.10;99.90;;;;;;5012538;28;20054;-83
2022/03/24 06:11:13;;;;;;;134.73;50.80;;;4.20;99.90;;;;;;5010753;28;20033;-82
2022/03/24 06:13:42;;;;;;;133.73;49.83;;;4.30;99.90;;;;;;5013636;28;20038;-83
2022/03/24 06:16:08;;;;;;;128.80;48.15;;;4.50;99.90;;;;;;5009587;28;20460;-83
2022/03/24 06:18:35;;;;;;;130.32;51.45;;;4.50;99.90;;;;;;5010249;28;20033;-83
2022/03/24 06:21:01;;;;;;;135.27;50.42;;;4.60;99.90;;;;;;5017469;28;20052;-83
2022/03/24 06:23:27;;;;;;;133.38;48.42;;;4.70;99.90;;;;;;5026166;28;20400;-83
2022/03/24 06:25:52;;;;;;;136.32;49.58;;;4.80;99.90;;;;;;5015117;28;20457;-83
2022/03/24 06:28:18;;;;;;;134.15;49.20;;;5.00;99.90;;;;;;5020998;28;20433;-83
2022/03/24 06:30:44;;;;;;;133.65;49.20;;;5.10;99.90;;;;;;5017541;28;20562;-83
2022/03/24 06:33:10;;;;;;;119.97;46.42;;;5.30;99.90;;;;;;5018897;28;20022;-83
2022/03/24 06:35:36;;;;;;;116.82;47.83;;;5.40;99.90;;;;;;5013388;28;20068;-83
2022/03/24 06:38:02;;;;;;;124.65;47.75;;;5.50;99.90;;;;;;5025922;28;20485;-83
2022/03/24 06:40:28;;;;;;;120.97;49.85;;;5.70;99.90;;;;;;5012814;28;20028;-82
2022/03/24 06:42:54;;;;;;;117.70;48.55;;;5.90;99.90;;;;;;5013663;28;20050;-83
2022/03/24 06:45:20;;;;;;;120.47;47.92;;;6.00;99.90;;;;;;5019060;28;20036;-82
2022/03/24 06:47:46;;;;;;;116.40;46.80;;;6.10;99.90;;;;;;5033636;28;20435;-83
2022/03/24 06:50:13;;;;;;;102.28;44.30;;;6.30;99.90;;;;;;5024763;28;20495;-83
2022/03/24 06:52:40;;;;;;;102.65;44.20;;;6.50;99.90;;;;;;5017222;28;20478;-83
2022/03/24 06:55:06;;;;;;;106.38;44.28;;;6.70;99.90;;;;;;5016702;28;20485;-83
2022/03/24 06:57:32;;;;;;;106.45;44.80;;;6.80;99.90;;;;;;5019065;28;20499;-83
2022/03/24 06:59:57;;;;;;;104.78;45.67;;;7.00;99.90;;;;;;5018249;28;20021;-83
2022/03/24 07:02:23;;;;;;;106.55;44.38;;;7.30;99.90;;;;;;5021989;28;20433;-83
2022/03/24 07:04:49;;;;;;;91.25;38.42;;;7.40;99.90;;;;;;5015393;28;20029;-83
2022/03/24 07:07:15;;;;;;;90.93;40.78;;;7.50;76.60;;;;;;5022287;28;20061;-82
2022/03/24 07:09:40;;;;;;;86.18;36.17;;;7.70;55.40;;;;;;5016898;28;20389;-82
2022/03/24 07:12:07;;;;;;;89.72;40.85;;;8.40;1.00;;;;;;5013354;28;20347;-83
2022/03/24 07:14:32;;;;;;;87.40;38.42;;;11.70;99.90;;;;;;5011860;28;20473;-83
2022/03/24 07:16:58;;;;;;;86.40;41.45;;;14.10;99.90;;;;;;5024392;28;20148;-83
2022/03/24 07:19:23;;;;;;;74.93;36.85;;;15.60;99.90;;;;;;5022014;28;20040;-83
2022/03/24 07:21:49;;;;;;;78.35;37.53;;;16.50;99.90;;;;;;5025126;28;20025;-83
2022/03/24 07:24:15;;;;;;;82.88;37.83;;;17.50;99.90;;;;;;5022383;28;20033;-83
2022/03/24 07:26:41;;;;;;;78.20;38.33;;;18.40;99.90;;;;;;5029449;28;20366;-83
2022/03/24 07:29:10;;;;;;;79.35;36.60;;;19.00;99.90;;;;;;5013988;28;20029;-83
2022/03/24 07:31:36;;;;;;;84.20;39.83;;;20.10;99.90;;;;;;5021777;28;20071;-83
2022/03/24 07:34:02;;;;;;;78.80;39.28;;;21.10;99.90;;;;;;5027684;28;20029;-83
2022/03/24 07:36:28;;;;;;;85.60;41.20;;;22.00;99.90;;;;;;5031869;28;20099;-83
2022/03/24 07:38:55;;;;;;;77.57;38.88;;;22.30;99.90;;;;;;5016121;28;20022;-83
2022/03/24 07:41:21;;;;;;;69.35;35.97;;;23.50;99.90;;;;;;5018741;28;20034;-83
2022/03/24 07:43:47;;;;;;;81.20;40.90;;;22.20;99.90;;;;;;5022477;28;20461;-83
2022/03/24 07:46:13;;;;;;;74.72;36.15;;;23.10;99.90;;;;;;5032450;28;20049;-83
2022/03/24 07:48:39;;;;;;;72.90;37.15;;;24.10;99.90;;;;;;5023526;28;20116;-83
2022/03/24 07:51:06;;;;;;;74.05;36.92;;;23.10;99.90;;;;;;5027855;28;20053;-83
2022/03/24 07:53:49;;;;;;;72.82;38.20;;;22.90;99.90;;;;;;5013523;28;20034;-83
2022/03/24 07:56:17;;;;;;;73.53;37.83;;;23.70;99.90;;;;;;5011799;28;20030;-83
2022/03/24 07:58:42;;;;;;;72.57;38.25;;;24.70;99.90;;;;;;5029817;28;20021;-83
2022/03/24 08:01:08;;;;;;;70.60;37.45;;;25.50;99.90;;;;;;5013425;28;20030;-83
2022/03/24 08:03:34;;;;;;;76.05;41.33;;;24.30;99.90;;;;;;5021139;28;20044;-83
2022/03/24 08:06:03;;;;;;;78.20;41.70;;;24.20;99.90;;;;;;5015195;28;20401;-83
2022/03/24 08:08:33;;;;;;;72.00;37.53;;;24.90;99.90;;;;;;5032657;28;20026;-83
2022/03/24 08:10:58;;;;;;;73.85;41.33;;;26.30;99.90;;;;;;5017450;28;20560;-83
2022/03/24 08:13:24;;;;;;;76.70;42.83;;;25.70;99.90;;;;;;5017586;28;20109;-84
2022/03/24 08:15:51;;;;;;;73.72;40.42;;;27.60;99.90;;;;;;5009599;28;20026;-83
2022/03/24 08:18:17;;;;;;;73.20;43.05;;;28.40;99.90;;;;;;5021038;28;20513;-83
2022/03/24 08:20:45;;;;;;;73.50;44.53;;;28.00;99.90;;;;;;5017061;28;20041;-84
2022/03/24 08:23:11;;;;;;;62.67;38.25;;;28.30;99.90;;;;;;5005628;28;20035;-83
2022/03/24 08:25:42;;;;;;;65.75;41.05;;;27.20;99.90;;;;;;5024651;28;20026;-83
2022/03/24 08:28:08;;;;;;;71.95;41.30;;;28.30;99.90;;;;;;5028725;28;20022;-83
2022/03/24 08:30:34;;;;;;;59.72;38.25;;;28.70;99.90;;;;;;5019173;28;20061;-83
2022/03/24 08:32:59;;;;;;;59.67;37.83;;;29.20;99.90;;;;;;5013146;28;20396;-84
2022/03/24 08:35:25;;;;;;;58.05;36.78;;;29.90;99.90;;;;;;5019115;28;20408;-83
2022/03/24 08:37:51;;;;;;;64.35;39.05;;;30.50;99.90;;;;;;5016212;28;20097;-83
2022/03/24 08:40:17;;;;;;;56.45;35.72;;;30.90;99.90;;;;;;5020106;28;20026;-83
2022/03/24 08:42:43;;;;;;;60.75;38.17;;;30.20;99.90;;;;;;5011882;28;20415;-84
2022/03/24 08:45:12;;;;;;;60.05;40.67;;;30.30;99.90;;;;;;5024723;28;20034;-83
2022/03/24 08:47:39;;;;;;;63.43;39.10;;;30.10;99.90;;;;;;5020167;28;20607;-82
2022/03/24 08:50:07;;;;;;;60.88;39.28;;;30.70;99.90;;;;;;5010292;28;20120;-83
2022/03/24 08:52:33;;;;;;;60.70;39.83;;;30.40;99.90;;;;;;5023274;28;20029;-83
2022/03/24 08:54:59;;;;;;;56.97;36.05;;;31.00;99.90;;;;;;5014235;28;20022;-83
2022/03/24 08:57:28;;;;;;;61.80;38.17;;;31.60;99.90;;;;;;5011527;28;20030;-82
2022/03/24 09:00:00;;;;;;;55.17;35.20;;;31.50;99.90;;;;;;5010478;28;20168;-82
2022/03/24 09:02:26;;;;;;;55.25;37.28;;;31.90;99.90;;;;;;5015074;28;20022;-82
2022/03/24 09:04:52;;;;;;;55.88;37.08;;;31.00;99.90;;;;;;5005931;28;20038;-82
2022/03/24 09:07:18;;;;;;;57.00;37.35;;;31.20;99.90;;;;;;5011778;28;20029;-82
2022/03/24 09:09:44;;;;;;;56.33;35.20;;;31.50;99.90;;;;;;5014939;28;20026;-82
2022/03/24 09:12:10;;;;;;;57.08;38.88;;;32.90;99.90;;;;;;5022426;28;20477;-83
2022/03/24 09:14:37;;;;;;;60.25;39.58;;;32.40;99.90;;;;;;5015659;28;20481;-82
2022/03/24 09:17:04;;;;;;;55.85;38.08;;;31.70;99.90;;;;;;5022034;28;20021;-82
2022/03/24 09:19:29;;;;;;;60.72;38.45;;;31.70;99.90;;;;;;5025029;28;20026;-81
2022/03/24 09:21:55;;;;;;;56.35;39.05;;;33.00;99.90;;;;;;5013866;28;20037;-82
2022/03/24 09:24:20;;;;;;;57.53;38.88;;;32.20;99.90;;;;;;5013705;28;20081;-81
2022/03/24 09:26:46;;;;;;;55.22;38.30;;;32.70;99.90;;;;;;5012286;28;20028;-82
2022/03/24 09:29:11;;;;;;;52.40;36.88;;;31.70;99.90;;;;;;5020201;28;20365;-83
2022/03/24 09:31:37;;;;;;;48.90;31.45;;;34.10;99.90;;;;;;5024655;28;20030;-82
2022/03/24 09:34:04;;;;;;;53.22;33.65;;;34.20;99.90;;;;;;5017934;28;20043;-81
2022/03/24 09:36:29;;;;;;;50.58;34.42;;;32.00;99.90;;;;;;5009824;28;20461;-81
2022/03/24 09:38:55;;;;;;;43.72;28.92;;;32.40;99.90;;;;;;5013456;28;20026;-82
2022/03/24 09:41:21;;;;;;;50.30;30.70;;;34.10;99.90;;;;;;5013549;28;20026;-81
2022/03/24 09:43:47;;;;;;;47.95;32.22;;;32.40;99.90;;;;;;5013179;28;20512;-81
2022/03/24 09:46:15;;;;;;;37.00;24.23;;;31.80;99.90;;;;;;5016288;28;20025;-82
2022/03/24 09:48:41;;;;;;;42.60;29.58;;;31.20;99.90;;;;;;5018951;28;20025;-82
2022/03/24 09:51:07;;;;;;;42.15;27.48;;;32.00;99.90;;;;;;5017298;28;20028;-82
2022/03/24 09:53:33;;;;;;;45.30;29.02;;;31.90;99.90;;;;;;5014968;28;20377;-82
2022/03/24 09:55:59;;;;;;;47.05;30.55;;;33.60;99.90;;;;;;5016504;28;20136;-82
2022/03/24 09:58:26;;;;;;;45.05;29.27;;;30.50;99.90;;;;;;5018490;28;20036;-82
2022/03/24 10:00:51;;;;;;;44.22;28.33;;;31.00;99.90;;;;;;5017621;28;20026;-83
2022/03/24 10:03:21;;;;;;;46.42;28.33;;;30.70;99.90;;;;;;5026170;28;20032;-82
2022/03/24 10:06:00;;;;;;;44.40;30.02;;;29.00;99.90;;;;;;5010968;28;20025;-82
2022/03/24 10:08:27;;;;;;;45.97;30.20;;;30.90;99.90;;;;;;5018593;28;20034;-82
2022/03/24 10:11:01;;;;;;;52.70;33.35;;;30.30;99.90;;;;;;5011020;28;20400;-82
2022/03/24 10:13:59;;;;;;;42.78;25.77;;;28.90;99.90;;;;;;5016788;28;20053;-82
2022/03/24 10:16:34;;;;;;;44.85;29.42;;;29.90;99.90;;;;;;4987619;28;20112;-83
2022/03/24 10:19:06;;;;;;;48.00;31.23;;;31.00;99.90;;;;;;5022368;28;20473;-82
2022/03/24 10:21:33;;;;;;;32.78;20.20;;;30.30;99.90;;;;;;5022515;28;20029;-82
2022/03/24 10:24:05;;;;;;;35.67;23.15;;;29.70;99.90;;;;;;5026080;28;20128;-83
2022/03/24 10:27:00;;;;;;;44.33;28.58;;;29.70;99.90;;;;;;5024602;28;20421;-83
2022/03/24 10:29:27;;;;;;;50.47;32.92;;;29.40;99.90;;;;;;5013509;28;20018;-82
2022/03/24 10:31:59;;;;;;;48.60;30.52;;;28.40;99.90;;;;;;5014530;28;20037;-83
2022/03/24 10:34:35;;;;;;;51.25;31.88;;;29.20;99.90;;;;;;5022161;28;20049;-82
2022/03/24 10:37:09;;;;;;;46.58;32.25;;;29.70;99.90;;;;;;5007448;28;20033;-83
2022/03/24 10:39:37;;;;;;;46.63;26.48;;;29.70;99.90;;;;;;5020389;28;20030;-82
2022/03/24 10:42:19;;;;;;;47.97;29.95;;;29.30;99.90;;;;;;5021530;28;20079;-82
2022/03/24 10:45:17;;;;;;;42.25;23.02;;;28.80;99.90;;;;;;5025737;28;20049;-82
2022/03/24 10:47:48;;;;;;;48.85;27.63;;;27.00;99.90;;;;;;5025354;28;20548;-82
2022/03/24 10:50:38;;;;;;;45.83;25.02;;;26.00;99.90;;;;;;5032070;28;20029;-82
2022/03/24 10:53:12;;;;;;;54.75;32.75;;;25.60;99.90;;;;;;5013486;28;20026;-82
2022/03/24 10:55:44;;;;;;;51.40;31.38;;;24.40;99.90;;;;;;5021649;28;20030;-82
2022/03/24 10:58:14;;;;;;;47.10;26.42;;;23.10;99.90;;;;;;5018595;28;20516;-82
2022/03/24 11:00:41;;;;;;;50.83;28.77;;;22.30;99.90;;;;;;5024207;28;20029;-82
2022/03/24 11:03:07;;;;;;;51.05;31.17;;;21.20;99.90;;;;;;5032901;28;20029;-83
2022/03/24 11:05:33;;;;;;;51.33;31.17;;;20.50;99.90;;;;;;5033436;28;20032;-82
2022/03/24 11:07:59;;;;;;;50.78;30.73;;;19.80;99.90;;;;;;5031049;28;20097;-82
2022/03/24 11:10:25;;;;;;;47.72;29.25;;;19.90;99.90;;;;;;5031707;28;20055;-82
2022/03/24 11:12:54;;;;;;;49.53;29.80;;;19.50;99.90;;;;;;5032758;28;20134;-82
2022/03/24 11:15:20;;;;;;;48.87;28.43;;;19.10;99.90;;;;;;5035696;28;20392;-81
2022/03/24 11:17:47;;;;;;;55.28;31.02;;;19.10;99.90;;;;;;5035844;28;20864;-81
2022/03/24 11:20:22;;;;;;;52.60;29.58;;;19.00;99.90;;;;;;5035810;28;20096;-81
2022/03/24 11:23:16;;;;;;;56.53;30.88;;;18.80;99.90;;;;;;5035759;28;20030;-81
2022/03/24 11:25:42;;;;;;;56.67;33.70;;;18.70;99.90;;;;;;5036585;28;20045;-82
2022/03/24 11:28:13;;;;;;;52.90;31.45;;;18.40;99.90;;;;;;5029934;28;20026;-82
2022/03/24 11:30:39;;;;;;;57.67;32.45;;;18.10;99.90;;;;;;5015473;28;20136;-82
2022/03/24 11:33:05;;;;;;;52.63;29.10;;;18.20;99.90;;;;;;5030170;28;20887;-82
2022/03/24 11:35:34;;;;;;;60.70;34.92;;;18.40;99.90;;;;;;5015567;28;20026;-82
2022/03/24 11:38:02;;;;;;;55.47;30.67;;;18.40;99.90;;;;;;5013287;28;20029;-82
2022/03/24 11:40:34;;;;;;;56.05;30.75;;;18.20;99.90;;;;;;5016979;28;20033;-81
2022/03/24 11:43:11;;;;;;;49.42;27.17;;;18.00;99.90;;;;;;5015409;28;20485;-81
2022/03/24 11:45:58;;;;;;;50.65;28.60;;;18.00;99.90;;;;;;5016653;28;20122;-82
2022/03/24 11:48:33;;;;;;;54.53;30.25;;;18.10;99.90;;;;;;5013005;28;20021;-81
2022/03/24 11:51:23;;;;;;;64.22;34.78;;;18.10;99.90;;;;;;4995435;28;20049;-82
2022/03/24 11:54:04;;;;;;;50.17;28.02;;;18.20;99.90;;;;;;5010227;28;20038;-81
2022/03/24 11:56:30;;;;;;;53.17;32.05;;;18.10;99.90;;;;;;5012747;28;20037;-81
2022/03/24 11:58:56;;;;;;;54.67;30.30;;;18.20;99.90;;;;;;5013999;28;20030;-81
2022/03/24 12:01:22;;;;;;;49.17;28.85;;;18.10;99.90;;;;;;5019251;28;20041;-81
2022/03/24 12:04:08;;;;;;;43.05;21.98;;;17.90;99.90;;;;;;5012565;28;20053;-82
2022/03/24 12:06:48;;;;;;;43.83;23.20;;;18.10;99.90;;;;;;5014905;28;20581;-82
2022/03/24 12:09:19;;;;;;;46.05;26.35;;;18.10;99.90;;;;;;5014637;28;20018;-81
2022/03/24 12:11:46;;;;;;;53.90;25.27;;;18.50;99.90;;;;;;5013366;28;20083;-81
2022/03/24 12:14:19;;;;;;;47.15;26.00;;;18.50;99.90;;;;;;5014031;28;20434;-82
2022/03/24 12:16:48;;;;;;;45.17;26.17;;;18.20;99.90;;;;;;5014503;28;20110;-82
2022/03/24 12:19:32;;;;;;;48.17;26.15;;;18.20;99.90;;;;;;5021747;28;20041;-81
2022/03/24 12:21:58;;;;;;;46.97;25.63;;;18.10;99.90;;;;;;5016716;28;20108;-82
2022/03/24 12:24:24;;;;;;;47.22;25.70;;;18.10;99.90;;;;;;5019223;28;20030;-81
2022/03/24 12:26:59;;;;;;;40.33;23.48;;;17.80;99.90;;;;;;5014962;28;20041;-81
2022/03/24 12:29:26;;;;;;;39.90;20.88;;;18.10;99.90;;;;;;5020362;28;20045;-83
2022/03/24 12:32:01;;;;;;;35.22;16.80;;;18.30;99.90;;;;;;5013752;28;20072;-82
2022/03/24 12:34:29;;;;;;;34.70;19.67;;;18.30;99.90;;;;;;5025553;28;20061;-82
2022/03/24 12:36:55;;;;;;;27.17;14.88;;;18.10;99.90;;;;;;5012151;28;20026;-82
2022/03/24 12:39:36;;;;;;;34.70;18.20;;;18.10;99.90;;;;;;5020432;28;20028;-81
2022/03/24 12:42:08;;;;;;;31.98;15.95;;;18.20;99.90;;;;;;5027682;28;20032;-81
2022/03/24 12:44:55;;;;;;;36.10;15.65;;;18.40;99.90;;;;;;5025094;28;20461;-82